sensor_id;sensor_type;location;lat;lon;timestamp;pressure;altitude;pressure_sealevel;temperature;humidity
55540;BME280;41384;51.418;7.286;2023-06-24T00:01:57;100744.25;;;18.92;84.81
55540;BME280;41384;51.418;7.286;2023-06-24T00:04:23;100738.59;;;18.76;85.92
55540;BME280;41384;51.418;7.286;2023-06-24T00:06:48;100739.03;;;18.85;85.79
55540;BME280;41384;51.418;7.286;2023-06-24T00:09:13;100738.69;;;18.81;85.73
55540;BME280;41384;51.418;7.286;2023-06-24T00:11:39;100738.94;;;18.80;86.76
55540;BME280;41384;51.418;7.286;2023-06-24T00:14:04;100735.44;;;18.79;85.31
55540;BME280;41384;51.418;7.286;2023-06-24T00:16:31;100747.34;;;18.72;86.49
55540;BME280;41384;51.418;7.286;2023-06-24T00:18:57;100732.44;;;18.76;86.30
55540;BME280;41384;51.418;7.286;2023-06-24T00:21:24;100734.63;;;18.79;85.40
55540;BME280;41384;51.418;7.286;2023-06-24T00:23:55;100736.59;;;18.84;84.51
55540;BME280;41384;51.418;7.286;2023-06-24T00:26:20;100738.34;;;18.78;85.14
55540;BME280;41384;51.418;7.286;2023-06-24T00:28:45;100734.50;;;18.57;87.45
55540;BME280;41384;51.418;7.286;2023-06-24T00:31:11;100728.97;;;18.75;87.06
55540;BME280;41384;51.418;7.286;2023-06-24T00:33:36;100730.53;;;18.88;85.63
55540;BME280;41384;51.418;7.286;2023-06-24T00:36:02;100728.66;;;18.89;84.80
55540;BME280;41384;51.418;7.286;2023-06-24T00:38:27;100726.69;;;18.84;84.81
55540;BME280;41384;51.418;7.286;2023-06-24T00:40:57;100725.25;;;18.76;84.75
55540;BME280;41384;51.418;7.286;2023-06-24T00:43:23;100717.81;;;18.66;85.72
55540;BME280;41384;51.418;7.286;2023-06-24T00:45:48;100720.88;;;18.58;85.62
55540;BME280;41384;51.418;7.286;2023-06-24T00:48:14;100719.69;;;18.66;85.61
55540;BME280;41384;51.418;7.286;2023-06-24T00:50:40;100725.84;;;18.66;85.37
55540;BME280;41384;51.418;7.286;2023-06-24T00:53:07;100724.56;;;18.69;84.59
55540;BME280;41384;51.418;7.286;2023-06-24T00:55:32;100724.09;;;18.72;85.14
55540;BME280;41384;51.418;7.286;2023-06-24T00:57:58;100722.22;;;18.73;84.85
55540;BME280;41384;51.418;7.286;2023-06-24T01:00:25;100726.69;;;18.55;86.22
55540;BME280;41384;51.418;7.286;2023-06-24T01:02:51;100726.22;;;18.58;85.97
55540;BME280;41384;51.418;7.286;2023-06-24T01:05:17;100720.66;;;18.60;86.56
55540;BME280;41384;51.418;7.286;2023-06-24T01:07:43;100737.75;;;18.47;87.50
55540;BME280;41384;51.418;7.286;2023-06-24T01:10:10;100726.59;;;18.50;87.25
55540;BME280;41384;51.418;7.286;2023-06-24T01:12:39;100720.56;;;18.43;87.34
55540;BME280;41384;51.418;7.286;2023-06-24T01:15:06;100722.41;;;18.42;87.66
55540;BME280;41384;51.418;7.286;2023-06-24T01:17:55;100718.94;;;18.42;87.02
55540;BME280;41384;51.418;7.286;2023-06-24T01:20:27;100718.38;;;18.40;87.34
55540;BME280;41384;51.418;7.286;2023-06-24T01:26:21;100721.63;;;18.42;86.95
55540;BME280;41384;51.418;7.286;2023-06-24T01:34:18;100714.47;;;17.94;90.32
55540;BME280;41384;51.418;7.286;2023-06-24T01:39:26;100711.19;;;18.28;88.59
55540;BME280;41384;51.418;7.286;2023-06-24T01:42:02;100709.31;;;18.41;87.36
55540;BME280;41384;51.418;7.286;2023-06-24T01:44:31;100706.91;;;18.27;88.06
55540;BME280;41384;51.418;7.286;2023-06-24T01:46:58;100701.28;;;18.41;86.66
55540;BME280;41384;51.418;7.286;2023-06-24T01:49:28;100692.03;;;18.31;87.46
55540;BME280;41384;51.418;7.286;2023-06-24T01:51:55;100695.47;;;18.32;87.84
55540;BME280;41384;51.418;7.286;2023-06-24T01:54:23;100692.97;;;18.25;87.53
55540;BME280;41384;51.418;7.286;2023-06-24T01:56:52;100702.25;;;18.22;88.26
55540;BME280;41384;51.418;7.286;2023-06-24T01:59:20;100699.94;;;18.26;88.31
55540;BME280;41384;51.418;7.286;2023-06-24T02:01:46;100698.06;;;18.27;88.31
55540;BME280;41384;51.418;7.286;2023-06-24T02:04:12;100698.06;;;18.27;88.31
55540;BME280;41384;51.418;7.286;2023-06-24T02:06:40;100702.59;;;18.26;88.05
55540;BME280;41384;51.418;7.286;2023-06-24T02:09:06;100708.53;;;18.28;87.38
55540;BME280;41384;51.418;7.286;2023-06-24T02:11:33;100707.59;;;18.22;88.20
55540;BME280;41384;51.418;7.286;2023-06-24T02:14:01;100708.41;;;18.23;87.68
55540;BME280;41384;51.418;7.286;2023-06-24T02:16:27;100700.03;;;18.19;88.83
55540;BME280;41384;51.418;7.286;2023-06-24T02:18:55;100712.03;;;18.17;88.43
55540;BME280;41384;51.418;7.286;2023-06-24T02:21:23;100705.72;;;17.99;89.33
55540;BME280;41384;51.418;7.286;2023-06-24T02:23:49;100705.06;;;18.16;88.93
55540;BME280;41384;51.418;7.286;2023-06-24T02:26:15;100696.31;;;18.20;88.54
55540;BME280;41384;51.418;7.286;2023-06-24T02:28:44;100697.63;;;18.18;89.31
55540;BME280;41384;51.418;7.286;2023-06-24T02:31:10;100690.88;;;18.27;88.03
55540;BME280;41384;51.418;7.286;2023-06-24T02:33:37;100693.75;;;18.26;87.94
55540;BME280;41384;51.418;7.286;2023-06-24T02:36:02;100693.09;;;18.06;90.34
55540;BME280;41384;51.418;7.286;2023-06-24T02:38:28;100701.00;;;18.13;89.56
55540;BME280;41384;51.418;7.286;2023-06-24T02:40:53;100693.56;;;18.15;88.86
55540;BME280;41384;51.418;7.286;2023-06-24T02:43:18;100699.84;;;18.09;89.22
55540;BME280;41384;51.418;7.286;2023-06-24T02:45:45;100696.00;;;18.05;90.18
55540;BME280;41384;51.418;7.286;2023-06-24T02:48:12;100694.47;;;18.21;89.06
55540;BME280;41384;51.418;7.286;2023-06-24T02:50:38;100696.69;;;18.24;89.03
55540;BME280;41384;51.418;7.286;2023-06-24T02:53:06;100697.06;;;18.16;89.83
55540;BME280;41384;51.418;7.286;2023-06-24T02:55:33;100700.41;;;18.11;90.33
55540;BME280;41384;51.418;7.286;2023-06-24T02:57:59;100692.50;;;18.16;89.46
55540;BME280;41384;51.418;7.286;2023-06-24T03:00:27;100694.59;;;18.14;89.57
55540;BME280;41384;51.418;7.286;2023-06-24T03:02:52;100692.97;;;18.01;90.31
55540;BME280;41384;51.418;7.286;2023-06-24T03:05:18;100700.31;;;18.06;89.76
55540;BME280;41384;51.418;7.286;2023-06-24T03:07:44;100694.84;;;18.01;89.78
55540;BME280;41384;51.418;7.286;2023-06-24T03:10:10;100688.91;;;18.11;90.10
55540;BME280;41384;51.418;7.286;2023-06-24T03:12:36;100701.09;;;18.06;89.45
55540;BME280;41384;51.418;7.286;2023-06-24T03:15:01;100708.53;;;18.04;90.16
55540;BME280;41384;51.418;7.286;2023-06-24T03:17:27;100696.91;;;18.11;89.32
55540;BME280;41384;51.418;7.286;2023-06-24T03:19:52;100698.44;;;17.94;91.18
55540;BME280;41384;51.418;7.286;2023-06-24T03:22:17;100697.38;;;18.07;90.58
55540;BME280;41384;51.418;7.286;2023-06-24T03:24:43;100693.31;;;17.93;91.00
55540;BME280;41384;51.418;7.286;2023-06-24T03:27:08;100700.41;;;18.11;89.65
55540;BME280;41384;51.418;7.286;2023-06-24T03:29:34;100704.25;;;18.15;89.16
55540;BME280;41384;51.418;7.286;2023-06-24T03:31:59;100698.22;;;18.08;90.29
55540;BME280;41384;51.418;7.286;2023-06-24T03:34:25;100702.13;;;18.17;89.37
55540;BME280;41384;51.418;7.286;2023-06-24T03:36:52;100702.03;;;18.24;89.01
55540;BME280;41384;51.418;7.286;2023-06-24T03:39:19;100706.22;;;18.20;89.18
55540;BME280;41384;51.418;7.286;2023-06-24T03:41:44;100704.13;;;18.22;89.21
55540;BME280;41384;51.418;7.286;2023-06-24T03:44:10;100705.28;;;18.26;88.42
55540;BME280;41384;51.418;7.286;2023-06-24T03:46:35;100706.06;;;18.27;89.23
55540;BME280;41384;51.418;7.286;2023-06-24T03:49:00;100706.44;;;18.30;87.85
55540;BME280;41384;51.418;7.286;2023-06-24T03:51:26;100708.38;;;18.35;87.73
55540;BME280;41384;51.418;7.286;2023-06-24T03:53:51;100701.75;;;18.37;87.71
55540;BME280;41384;51.418;7.286;2023-06-24T03:56:17;100706.44;;;18.59;86.14
55540;BME280;41384;51.418;7.286;2023-06-24T03:58:42;100703.91;;;18.52;85.18
55540;BME280;41384;51.418;7.286;2023-06-24T04:01:07;100711.31;;;18.62;85.73
55540;BME280;41384;51.418;7.286;2023-06-24T04:03:34;100709.03;;;18.54;87.18
55540;BME280;41384;51.418;7.286;2023-06-24T04:05:59;100709.47;;;18.63;86.74
55540;BME280;41384;51.418;7.286;2023-06-24T04:08:26;100713.59;;;18.83;84.23
55540;BME280;41384;51.418;7.286;2023-06-24T04:10:57;100713.41;;;18.89;82.01
55540;BME280;41384;51.418;7.286;2023-06-24T04:13:25;100711.16;;;19.10;80.93
55540;BME280;41384;51.418;7.286;2023-06-24T04:15:50;100714.16;;;18.85;84.54
55540;BME280;41384;51.418;7.286;2023-06-24T04:18:15;100716.75;;;19.08;81.48
55540;BME280;41384;51.418;7.286;2023-06-24T04:20:40;100711.91;;;19.22;79.63
55540;BME280;41384;51.418;7.286;2023-06-24T04:23:06;100719.84;;;19.34;77.74
55540;BME280;41384;51.418;7.286;2023-06-24T04:25:34;100718.06;;;19.40;77.77
55540;BME280;41384;51.418;7.286;2023-06-24T04:27:59;100712.78;;;19.45;76.59
55540;BME280;41384;51.418;7.286;2023-06-24T04:30:24;100716.44;;;19.39;76.58
55540;BME280;41384;51.418;7.286;2023-06-24T04:32:50;100712.06;;;19.50;76.56
55540;BME280;41384;51.418;7.286;2023-06-24T04:35:15;100722.44;;;19.46;76.54
55540;BME280;41384;51.418;7.286;2023-06-24T04:37:40;100724.97;;;19.53;75.93
55540;BME280;41384;51.418;7.286;2023-06-24T04:40:06;100720.59;;;19.47;76.14
55540;BME280;41384;51.418;7.286;2023-06-24T04:42:31;100719.69;;;19.58;75.81
55540;BME280;41384;51.418;7.286;2023-06-24T04:44:56;100721.56;;;19.58;75.37
55540;BME280;41384;51.418;7.286;2023-06-24T04:47:22;100720.97;;;19.56;75.15
55540;BME280;41384;51.418;7.286;2023-06-24T04:49:47;100724.56;;;19.61;75.52
55540;BME280;41384;51.418;7.286;2023-06-24T04:52:12;100720.09;;;19.67;74.85
55540;BME280;41384;51.418;7.286;2023-06-24T04:54:38;100722.53;;;19.68;74.64
55540;BME280;41384;51.418;7.286;2023-06-24T04:57:14;100717.56;;;19.77;74.99
55540;BME280;41384;51.418;7.286;2023-06-24T04:59:47;100720.78;;;19.79;74.88
55540;BME280;41384;51.418;7.286;2023-06-24T05:02:12;100719.81;;;19.86;74.37
55540;BME280;41384;51.418;7.286;2023-06-24T05:04:38;100712.59;;;19.86;75.43
55540;BME280;41384;51.418;7.286;2023-06-24T05:07:03;100708.78;;;19.82;74.99
55540;BME280;41384;51.418;7.286;2023-06-24T05:09:28;100717.69;;;19.88;74.83
55540;BME280;41384;51.418;7.286;2023-06-24T05:11:54;100711.97;;;19.79;75.43
55540;BME280;41384;51.418;7.286;2023-06-24T05:14:19;100725.16;;;19.86;74.99
55540;BME280;41384;51.418;7.286;2023-06-24T05:16:44;100709.59;;;19.82;74.43
55540;BME280;41384;51.418;7.286;2023-06-24T05:19:10;100712.38;;;19.71;75.39
55540;BME280;41384;51.418;7.286;2023-06-24T05:21:35;100711.91;;;19.91;74.90
55540;BME280;41384;51.418;7.286;2023-06-24T05:24:00;100706.19;;;20.04;74.17
55540;BME280;41384;51.418;7.286;2023-06-24T05:26:26;100713.22;;;20.10;73.92
55540;BME280;41384;51.418;7.286;2023-06-24T05:28:51;100712.47;;;20.15;73.33
55540;BME280;41384;51.418;7.286;2023-06-24T05:31:16;100714.66;;;20.18;73.56
55540;BME280;41384;51.418;7.286;2023-06-24T05:33:41;100711.47;;;20.21;73.76
55540;BME280;41384;51.418;7.286;2023-06-24T05:36:07;100712.41;;;20.10;74.13
55540;BME280;41384;51.418;7.286;2023-06-24T05:38:32;100717.59;;;20.17;74.33
55540;BME280;41384;51.418;7.286;2023-06-24T05:40:57;100720.09;;;20.23;73.91
55540;BME280;41384;51.418;7.286;2023-06-24T05:43:22;100717.66;;;20.22;74.27
55540;BME280;41384;51.418;7.286;2023-06-24T05:45:48;100719.84;;;20.25;74.01
55540;BME280;41384;51.418;7.286;2023-06-24T05:48:13;100722.53;;;20.25;77.61
55540;BME280;41384;51.418;7.286;2023-06-24T05:50:39;100717.41;;;20.23;76.18
55540;BME280;41384;51.418;7.286;2023-06-24T05:53:04;100722.19;;;20.21;75.54
55540;BME280;41384;51.418;7.286;2023-06-24T05:55:30;100722.03;;;20.28;75.64
55540;BME280;41384;51.418;7.286;2023-06-24T05:57:55;100716.41;;;20.30;75.85
55540;BME280;41384;51.418;7.286;2023-06-24T06:00:20;100724.34;;;20.41;75.70
55540;BME280;41384;51.418;7.286;2023-06-24T06:02:46;100719.41;;;20.55;74.41
55540;BME280;41384;51.418;7.286;2023-06-24T06:05:11;100718.63;;;20.60;74.00
55540;BME280;41384;51.418;7.286;2023-06-24T06:07:36;100720.75;;;20.58;73.21
55540;BME280;41384;51.418;7.286;2023-06-24T06:10:05;100726.94;;;20.59;73.90
55540;BME280;41384;51.418;7.286;2023-06-24T06:12:31;100725.06;;;20.59;74.32
55540;BME280;41384;51.418;7.286;2023-06-24T06:14:56;100728.88;;;20.63;74.12
55540;BME280;41384;51.418;7.286;2023-06-24T06:17:21;100721.69;;;20.69;73.80
55540;BME280;41384;51.418;7.286;2023-06-24T06:19:47;100723.06;;;20.71;73.44
55540;BME280;41384;51.418;7.286;2023-06-24T06:22:12;100725.88;;;20.60;74.13
55540;BME280;41384;51.418;7.286;2023-06-24T06:24:38;100730.88;;;20.73;74.45
55540;BME280;41384;51.418;7.286;2023-06-24T06:27:04;100734.84;;;20.70;74.00
55540;BME280;41384;51.418;7.286;2023-06-24T06:29:30;100737.53;;;20.70;74.74
55540;BME280;41384;51.418;7.286;2023-06-24T06:31:55;100736.41;;;20.66;74.87
55540;BME280;41384;51.418;7.286;2023-06-24T06:34:22;100742.09;;;20.70;74.04
55540;BME280;41384;51.418;7.286;2023-06-24T06:36:47;100735.47;;;20.78;73.73
55540;BME280;41384;51.418;7.286;2023-06-24T06:39:12;100737.78;;;20.91;73.42
55540;BME280;41384;51.418;7.286;2023-06-24T06:41:37;100737.28;;;20.94;73.12
55540;BME280;41384;51.418;7.286;2023-06-24T06:44:03;100739.47;;;20.97;73.20
55540;BME280;41384;51.418;7.286;2023-06-24T06:46:28;100742.19;;;21.03;73.35
55540;BME280;41384;51.418;7.286;2023-06-24T06:48:53;100743.16;;;20.91;74.23
55540;BME280;41384;51.418;7.286;2023-06-24T06:51:19;100751.25;;;20.96;73.98
55540;BME280;41384;51.418;7.286;2023-06-24T06:53:45;100751.81;;;20.98;74.37
55540;BME280;41384;51.418;7.286;2023-06-24T06:56:22;100743.50;;;21.00;73.80
55540;BME280;41384;51.418;7.286;2023-06-24T06:58:47;100745.69;;;21.03;74.70
55540;BME280;41384;51.418;7.286;2023-06-24T07:01:12;100755.06;;;21.01;74.80
55540;BME280;41384;51.418;7.286;2023-06-24T07:03:39;100755.34;;;21.04;75.67
55540;BME280;41384;51.418;7.286;2023-06-24T07:06:04;100751.56;;;21.00;74.57
55540;BME280;41384;51.418;7.286;2023-06-24T07:08:30;100748.13;;;21.05;75.75
55540;BME280;41384;51.418;7.286;2023-06-24T07:10:55;100756.97;;;21.05;76.59
55540;BME280;41384;51.418;7.286;2023-06-24T07:13:20;100752.47;;;21.11;76.24
55540;BME280;41384;51.418;7.286;2023-06-24T07:15:46;100749.28;;;21.14;75.20
55540;BME280;41384;51.418;7.286;2023-06-24T07:18:11;100752.81;;;21.20;76.05
55540;BME280;41384;51.418;7.286;2023-06-24T07:20:36;100752.00;;;21.19;75.93
55540;BME280;41384;51.418;7.286;2023-06-24T07:23:01;100751.81;;;21.26;75.84
55540;BME280;41384;51.418;7.286;2023-06-24T07:25:28;100754.28;;;21.33;76.05
55540;BME280;41384;51.418;7.286;2023-06-24T07:27:53;100750.88;;;21.42;75.58
55540;BME280;41384;51.418;7.286;2023-06-24T07:30:18;100755.72;;;21.46;75.94
55540;BME280;41384;51.418;7.286;2023-06-24T07:32:44;100751.16;;;21.46;76.17
55540;BME280;41384;51.418;7.286;2023-06-24T07:35:09;100760.59;;;21.49;75.71
55540;BME280;41384;51.418;7.286;2023-06-24T07:37:35;100764.63;;;21.51;77.03
55540;BME280;41384;51.418;7.286;2023-06-24T07:40:01;100759.56;;;21.55;76.55
55540;BME280;41384;51.418;7.286;2023-06-24T07:42:27;100771.66;;;21.57;75.66
55540;BME280;41384;51.418;7.286;2023-06-24T07:44:52;100772.47;;;21.58;74.32
55540;BME280;41384;51.418;7.286;2023-06-24T07:47:17;100767.38;;;21.62;74.85
55540;BME280;41384;51.418;7.286;2023-06-24T07:49:46;100770.41;;;21.65;75.28
55540;BME280;41384;51.418;7.286;2023-06-24T07:52:11;100765.06;;;21.70;74.92
55540;BME280;41384;51.418;7.286;2023-06-24T07:54:37;100769.38;;;21.71;75.11
55540;BME280;41384;51.418;7.286;2023-06-24T07:57:02;100762.16;;;21.72;76.14
55540;BME280;41384;51.418;7.286;2023-06-24T07:59:28;100769.19;;;21.78;75.85
55540;BME280;41384;51.418;7.286;2023-06-24T08:01:53;100762.22;;;21.82;77.00
55540;BME280;41384;51.418;7.286;2023-06-24T08:04:18;100764.38;;;21.85;77.99
55540;BME280;41384;51.418;7.286;2023-06-24T08:06:44;100762.00;;;21.94;77.36
55540;BME280;41384;51.418;7.286;2023-06-24T08:09:09;100766.66;;;22.04;77.64
55540;BME280;41384;51.418;7.286;2023-06-24T08:11:35;100766.66;;;22.04;78.06
55540;BME280;41384;51.418;7.286;2023-06-24T08:14:00;100766.13;;;22.07;77.95
55540;BME280;41384;51.418;7.286;2023-06-24T08:16:27;100767.75;;;22.08;77.75
55540;BME280;41384;51.418;7.286;2023-06-24T08:18:52;100770.97;;;22.10;77.53
55540;BME280;41384;51.418;7.286;2023-06-24T08:21:18;100766.47;;;22.16;77.09
55540;BME280;41384;51.418;7.286;2023-06-24T08:23:44;100765.66;;;22.21;77.21
55540;BME280;41384;51.418;7.286;2023-06-24T08:26:09;100775.88;;;22.19;77.10
55540;BME280;41384;51.418;7.286;2023-06-24T08:28:35;100773.72;;;22.21;76.38
55540;BME280;41384;51.418;7.286;2023-06-24T08:31:00;100768.41;;;22.36;78.01
55540;BME280;41384;51.418;7.286;2023-06-24T08:33:26;100764.09;;;22.30;77.84
55540;BME280;41384;51.418;7.286;2023-06-24T08:35:51;100764.94;;;22.36;78.03
55540;BME280;41384;51.418;7.286;2023-06-24T08:38:16;100753.63;;;22.34;78.20
55540;BME280;41384;51.418;7.286;2023-06-24T08:40:41;100761.44;;;22.40;78.18
55540;BME280;41384;51.418;7.286;2023-06-24T08:43:09;100766.63;;;22.52;77.41
55540;BME280;41384;51.418;7.286;2023-06-24T08:45:34;100761.00;;;22.54;76.37
55540;BME280;41384;51.418;7.286;2023-06-24T08:48:00;100758.59;;;22.63;77.50
55540;BME280;41384;51.418;7.286;2023-06-24T08:50:32;100762.41;;;22.77;77.31
55540;BME280;41384;51.418;7.286;2023-06-24T08:53:03;100758.66;;;22.88;76.85
55540;BME280;41384;51.418;7.286;2023-06-24T08:55:31;100754.09;;;22.89;74.47
55540;BME280;41384;51.418;7.286;2023-06-24T08:57:57;100763.25;;;22.88;74.07
55540;BME280;41384;51.418;7.286;2023-06-24T09:00:22;100760.28;;;22.89;72.94
55540;BME280;41384;51.418;7.286;2023-06-24T09:02:47;100763.50;;;22.92;72.31
55540;BME280;41384;51.418;7.286;2023-06-24T09:05:13;100761.13;;;22.95;71.65
55540;BME280;41384;51.418;7.286;2023-06-24T09:07:38;100770.28;;;23.10;71.31
55540;BME280;41384;51.418;7.286;2023-06-24T09:10:04;100761.44;;;23.20;71.87
55540;BME280;41384;51.418;7.286;2023-06-24T09:12:31;100760.63;;;23.24;69.41
55540;BME280;41384;51.418;7.286;2023-06-24T09:14:57;100754.69;;;23.17;69.69
55540;BME280;41384;51.418;7.286;2023-06-24T09:17:22;100763.03;;;23.15;68.73
55540;BME280;41384;51.418;7.286;2023-06-24T09:19:48;100747.97;;;23.20;67.95
55540;BME280;41384;51.418;7.286;2023-06-24T09:22:14;100755.25;;;23.35;66.84
55540;BME280;41384;51.418;7.286;2023-06-24T09:24:48;100752.03;;;23.43;67.68
55540;BME280;41384;51.418;7.286;2023-06-24T09:27:17;100745.03;;;23.63;65.89
55540;BME280;41384;51.418;7.286;2023-06-24T09:29:45;100745.56;;;23.65;64.27
55540;BME280;41384;51.418;7.286;2023-06-24T09:32:12;100745.78;;;23.84;63.89
55540;BME280;41384;51.418;7.286;2023-06-24T09:34:38;100745.78;;;23.79;64.56
55540;BME280;41384;51.418;7.286;2023-06-24T09:37:03;100739.59;;;23.83;63.81
55540;BME280;41384;51.418;7.286;2023-06-24T09:39:36;100734.75;;;23.80;63.83
55540;BME280;41384;51.418;7.286;2023-06-24T09:42:04;100741.72;;;23.92;65.51
55540;BME280;41384;51.418;7.286;2023-06-24T09:44:29;100743.09;;;23.89;65.09
55540;BME280;41384;51.418;7.286;2023-06-24T09:46:55;100736.59;;;23.95;64.98
55540;BME280;41384;51.418;7.286;2023-06-24T09:49:21;100733.38;;;23.93;65.63
55540;BME280;41384;51.418;7.286;2023-06-24T09:51:51;100735.00;;;23.89;64.53
55540;BME280;41384;51.418;7.286;2023-06-24T09:54:19;100731.47;;;23.94;63.91
55540;BME280;41384;51.418;7.286;2023-06-24T09:56:48;100731.47;;;23.94;64.12
55540;BME280;41384;51.418;7.286;2023-06-24T09:59:14;100727.69;;;24.05;63.37
55540;BME280;41384;51.418;7.286;2023-06-24T10:01:41;100711.50;;;24.05;65.57
55540;BME280;41384;51.418;7.286;2023-06-24T10:04:09;100721.72;;;24.13;64.25
55540;BME280;41384;51.418;7.286;2023-06-24T10:06:35;100711.50;;;24.05;64.13
55540;BME280;41384;51.418;7.286;2023-06-24T10:09:01;100714.50;;;24.03;63.21
55540;BME280;41384;51.418;7.286;2023-06-24T10:11:27;100712.00;;;24.17;62.26
55540;BME280;41384;51.418;7.286;2023-06-24T10:13:53;100708.81;;;23.95;61.78
55540;BME280;41384;51.418;7.286;2023-06-24T10:16:19;100716.44;;;23.72;63.98
55540;BME280;41384;51.418;7.286;2023-06-24T10:18:45;100709.41;;;23.81;64.53
55540;BME280;41384;51.418;7.286;2023-06-24T10:21:11;100697.50;;;24.03;64.46
55540;BME280;41384;51.418;7.286;2023-06-24T10:23:51;100694.38;;;24.41;61.95
55540;BME280;41384;51.418;7.286;2023-06-24T10:26:27;100693.72;;;24.59;61.96
55540;BME280;41384;51.418;7.286;2023-06-24T10:34:27;100690.16;;;24.74;57.32
55540;BME280;41384;51.418;7.286;2023-06-24T10:37:08;100682.06;;;24.74;60.09
55540;BME280;41384;51.418;7.286;2023-06-24T10:39:56;100683.94;;;24.79;56.87
55540;BME280;41384;51.418;7.286;2023-06-24T10:45:13;100675.44;;;24.51;58.48
55540;BME280;41384;51.418;7.286;2023-06-24T10:47:47;100674.81;;;24.65;58.20
55540;BME280;41384;51.418;7.286;2023-06-24T10:50:18;100673.69;;;24.76;57.20
55540;BME280;41384;51.418;7.286;2023-06-24T10:52:46;100669.19;;;25.01;57.24
55540;BME280;41384;51.418;7.286;2023-06-24T10:55:16;100673.16;;;25.09;56.25
55540;BME280;41384;51.418;7.286;2023-06-24T10:57:42;100674.28;;;25.02;55.87
55540;BME280;41384;51.418;7.286;2023-06-24T11:00:08;100667.56;;;25.00;55.38
55540;BME280;41384;51.418;7.286;2023-06-24T11:02:34;100670.94;;;25.16;55.72
55540;BME280;41384;51.418;7.286;2023-06-24T11:05:01;100668.06;;;25.07;55.44
55540;BME280;41384;51.418;7.286;2023-06-24T11:07:34;100661.75;;;25.17;55.92
55540;BME280;41384;51.418;7.286;2023-06-24T11:10:07;100656.59;;;24.86;56.60
55540;BME280;41384;51.418;7.286;2023-06-24T11:12:35;100662.56;;;24.83;51.81
55540;BME280;41384;51.418;7.286;2023-06-24T11:15:03;100659.69;;;24.63;53.13
55540;BME280;41384;51.418;7.286;2023-06-24T11:17:29;100655.56;;;24.82;52.69
55540;BME280;41384;51.418;7.286;2023-06-24T11:19:56;100660.00;;;25.02;52.63
55540;BME280;41384;51.418;7.286;2023-06-24T11:22:22;100646.09;;;25.14;50.93
55540;BME280;41384;51.418;7.286;2023-06-24T11:24:48;100662.56;;;25.17;50.39
55540;BME280;41384;51.418;7.286;2023-06-24T11:27:14;100657.56;;;25.30;50.36
55540;BME280;41384;51.418;7.286;2023-06-24T11:29:39;100655.66;;;25.35;50.86
55540;BME280;41384;51.418;7.286;2023-06-24T11:32:07;100654.34;;;25.28;49.87
55540;BME280;41384;51.418;7.286;2023-06-24T11:34:33;100653.41;;;25.43;49.12
55540;BME280;41384;51.418;7.286;2023-06-24T11:37:08;100655.56;;;25.46;49.10
55540;BME280;41384;51.418;7.286;2023-06-24T11:39:34;100661.44;;;25.53;45.22
55540;BME280;41384;51.418;7.286;2023-06-24T11:41:59;100658.00;;;25.72;39.57
55540;BME280;41384;51.418;7.286;2023-06-24T11:44:25;100658.16;;;25.81;41.78
55540;BME280;41384;51.418;7.286;2023-06-24T11:46:50;100655.41;;;25.61;45.02
55540;BME280;41384;51.418;7.286;2023-06-24T11:49:15;100655.34;;;25.91;41.95
55540;BME280;41384;51.418;7.286;2023-06-24T11:51:50;100643.69;;;25.90;41.30
55540;BME280;41384;51.418;7.286;2023-06-24T11:54:17;100645.69;;;26.04;43.60
55540;BME280;41384;51.418;7.286;2023-06-24T11:56:44;100650.66;;;26.21;44.14
55540;BME280;41384;51.418;7.286;2023-06-24T12:01:43;100643.34;;;25.97;44.97
55540;BME280;41384;51.418;7.286;2023-06-24T12:04:14;100639.78;;;26.02;44.37
55540;BME280;41384;51.418;7.286;2023-06-24T12:06:41;100643.28;;;26.02;43.93
55540;BME280;41384;51.418;7.286;2023-06-24T12:09:07;100640.19;;;26.14;42.17
55540;BME280;41384;51.418;7.286;2023-06-24T12:11:33;100638.56;;;26.13;44.07
55540;BME280;41384;51.418;7.286;2023-06-24T12:13:58;100632.53;;;26.21;44.00
55540;BME280;41384;51.418;7.286;2023-06-24T12:16:23;100625.28;;;26.17;43.58
55540;BME280;41384;51.418;7.286;2023-06-24T12:18:50;100624.34;;;26.27;43.48
55540;BME280;41384;51.418;7.286;2023-06-24T12:21:15;100630.81;;;26.45;42.45
55540;BME280;41384;51.418;7.286;2023-06-24T12:23:41;100625.63;;;26.48;41.73
55540;BME280;41384;51.418;7.286;2023-06-24T12:26:06;100628.28;;;26.54;41.12
55540;BME280;41384;51.418;7.286;2023-06-24T12:28:31;100630.03;;;26.44;42.27
55540;BME280;41384;51.418;7.286;2023-06-24T12:30:56;100628.94;;;26.45;42.78
55540;BME280;41384;51.418;7.286;2023-06-24T12:33:22;100612.34;;;26.52;42.48
55540;BME280;41384;51.418;7.286;2023-06-24T12:35:48;100612.53;;;26.56;42.21
55540;BME280;41384;51.418;7.286;2023-06-24T12:38:13;100609.56;;;26.57;41.25
55540;BME280;41384;51.418;7.286;2023-06-24T12:40:39;100604.22;;;26.52;40.91
55540;BME280;41384;51.418;7.286;2023-06-24T12:43:04;100599.66;;;26.66;41.53
55540;BME280;41384;51.418;7.286;2023-06-24T12:45:30;100602.88;;;26.83;40.12
55540;BME280;41384;51.418;7.286;2023-06-24T12:47:55;100606.78;;;26.95;39.93
55540;BME280;41384;51.418;7.286;2023-06-24T12:50:21;100603.50;;;27.13;39.61
55540;BME280;41384;51.418;7.286;2023-06-24T12:52:46;100609.38;;;27.01;40.17
55540;BME280;41384;51.418;7.286;2023-06-24T12:55:12;100608.00;;;27.03;37.36
55540;BME280;41384;51.418;7.286;2023-06-24T12:57:37;100605.91;;;27.00;40.19
55540;BME280;41384;51.418;7.286;2023-06-24T13:00:03;100604.47;;;27.03;41.38
55540;BME280;41384;51.418;7.286;2023-06-24T13:02:33;100597.69;;;27.05;40.38
55540;BME280;41384;51.418;7.286;2023-06-24T13:04:58;100600.19;;;27.16;38.37
55540;BME280;41384;51.418;7.286;2023-06-24T13:07:23;100598.00;;;27.18;39.45
55540;BME280;41384;51.418;7.286;2023-06-24T13:09:49;100599.19;;;27.12;39.91